createdAt,value
2022-12-29T00:01:02.272Z,99721.88
2022-12-29T00:02:04.621Z,99711.72
2022-12-29T00:03:06.865Z,99723.28
2022-12-29T00:04:15.284Z,99713.09
2022-12-29T00:05:17.819Z,99712.00
2022-12-29T00:06:20.105Z,99708.16
2022-12-29T00:07:22.384Z,99720.56
2022-12-29T00:08:40.599Z,99713.16
2022-12-29T00:09:43.230Z,99707.38
2022-12-29T00:10:45.464Z,99718.13
2022-12-29T00:11:47.715Z,99718.94
2022-12-29T00:13:19.432Z,99721.69
2022-12-29T00:14:40.246Z,99717.59
2022-12-29T00:15:42.426Z,99733.88
2022-12-29T00:16:46.234Z,99714.59
2022-12-29T00:17:48.396Z,99704.13
2022-12-29T00:18:51.021Z,99704.94
2022-12-29T00:20:12.127Z,99698.38
2022-12-29T00:21:34.180Z,99685.47
2022-12-29T00:22:54.787Z,99683.25
2022-12-29T00:24:30.682Z,99687.66
2022-12-29T00:25:51.440Z,99672.53
2022-12-29T00:27:16.522Z,99666.22
2022-12-29T00:28:38.995Z,99664.28
2022-12-29T00:29:59.604Z,99671.44
2022-12-29T00:31:20.892Z,99677.25
2022-12-29T00:32:41.745Z,99675.31
2022-12-29T00:34:02.635Z,99676.72
2022-12-29T00:35:10.971Z,99675.63
2022-12-29T00:36:16.672Z,99671.78
2022-12-29T00:37:39.324Z,99670.66
2022-12-29T00:39:04.841Z,99681.44
2022-12-29T00:40:26.095Z,99693.00
2022-12-29T00:41:47.169Z,99676.22
2022-12-29T00:43:18.395Z,99680.94
2022-12-29T00:44:20.677Z,99688.09
2022-12-29T00:45:23.149Z,99680.66
2022-12-29T00:46:25.354Z,99664.94
2022-12-29T00:47:27.865Z,99666.63
2022-12-29T00:48:48.927Z,99669.94
2022-12-29T00:49:51.179Z,99672.44
2022-12-29T00:50:57.280Z,99674.09
2022-12-29T00:52:04.612Z,99663.06
2022-12-29T00:53:06.757Z,99655.63
2022-12-29T00:54:09.452Z,99675.47
2022-12-29T00:55:11.734Z,99659.75
2022-12-29T00:56:13.995Z,99665.84
2022-12-29T00:57:16.332Z,99666.66
2022-12-29T00:58:23.092Z,99663.63
2022-12-29T00:59:26.113Z,99664.22
2022-12-29T01:00:28.313Z,99659.53
2022-12-29T01:01:32.391Z,99669.44
2022-12-29T01:02:34.887Z,99659.25
2022-12-29T01:03:40.943Z,99663.66
2022-12-29T01:04:43.090Z,99659.81
2022-12-29T01:05:45.369Z,99662.28
2022-12-29T01:06:49.280Z,99660.38
2022-12-29T01:07:51.663Z,99663.97
2022-12-29T01:09:15.844Z,99666.44
2022-12-29T01:10:18.451Z,99651.84
2022-12-29T01:11:21.643Z,99655.69
2022-12-29T01:12:41.748Z,99665.63
2022-12-29T01:13:45.807Z,99661.78
2022-12-29T01:14:50.800Z,99666.44
2022-12-29T01:15:54.205Z,99660.94
2022-12-29T01:16:58.218Z,99662.31
2022-12-29T01:18:00.455Z,99668.69
2022-12-29T01:19:03.172Z,99667.56
2022-12-29T01:20:05.960Z,99671.16
2022-12-29T01:21:08.207Z,99667.31
2022-12-29T01:22:10.353Z,99670.06
2022-12-29T01:23:12.825Z,99670.06
2022-12-29T01:24:17.715Z,99665.38
2022-12-29T01:25:20.389Z,99659.88
2022-12-29T01:26:22.850Z,99668.94
2022-12-29T01:27:27.792Z,99664.56
2022-12-29T01:28:29.941Z,99661.81
2022-12-29T01:29:32.144Z,99657.94
2022-12-29T01:30:34.387Z,99666.19
2022-12-29T01:31:36.749Z,99659.88
2022-12-29T01:32:39.196Z,99668.72
2022-12-29T01:33:41.642Z,99667.03
2022-12-29T01:34:43.852Z,99669.81
2022-12-29T01:35:48.574Z,99665.09
2022-12-29T01:36:50.800Z,99668.72
2022-12-29T01:37:53.065Z,99666.19
2022-12-29T01:38:55.990Z,99678.88
2022-12-29T01:39:58.308Z,99671.47
2022-12-29T01:41:00.819Z,99667.59
2022-12-29T01:42:02.998Z,99669.53
2022-12-29T01:43:08.866Z,99670.63
2022-12-29T01:45:02.560Z,99665.94
2022-12-29T01:46:04.831Z,99659.31
2022-12-29T01:47:09.612Z,99662.06
2022-12-29T01:48:14.527Z,99659.31
2022-12-29T01:49:23.048Z,99657.41
2022-12-29T01:50:33.360Z,99659.31
2022-12-29T01:52:01.548Z,99649.66
2022-12-29T01:53:10.360Z,99660.44
2022-12-29T01:54:19.527Z,99656.84
2022-12-29T01:55:22.454Z,99663.19
2022-12-29T01:56:25.307Z,99659.59
2022-12-29T01:57:32.518Z,99657.69
2022-12-29T01:58:41.409Z,99653.25
2022-12-29T02:00:10.836Z,99648.84
2022-12-29T02:01:22.921Z,99646.88
2022-12-29T02:02:26.441Z,99648.53
2022-12-29T02:03:31.629Z,99648.53
2022-12-29T02:04:41.508Z,99651.31
2022-12-29T02:06:03.441Z,99645.78
2022-12-29T02:07:12.647Z,99634.75
2022-12-29T02:08:14.975Z,99635.03
2022-12-29T02:09:17.309Z,99632.56
2022-12-29T02:10:24.202Z,99630.63
2022-12-29T02:11:29.993Z,99629.53
2022-12-29T02:12:32.516Z,99627.88
2022-12-29T02:13:34.858Z,99627.88
2022-12-29T02:14:37.337Z,99627.03
2022-12-29T02:16:03.985Z,99629.81
2022-12-29T02:17:30.360Z,99621.53
2022-12-29T02:18:52.502Z,99621.53
2022-12-29T02:20:30.754Z,99624.28
2022-12-29T02:21:41.646Z,99622.63
2022-12-29T02:23:08.696Z,99628.72
2022-12-29T02:24:44.350Z,99628.72
2022-12-29T02:26:14.919Z,99625.69
2022-12-29T02:27:59.920Z,99621.25
2022-12-29T02:29:16.538Z,99626.50
2022-12-29T02:30:19.441Z,99619.31
2022-12-29T02:31:22.760Z,99618.50
2022-12-29T02:32:49.926Z,99612.72
2022-12-29T02:34:31.236Z,99624.59
2022-12-29T02:35:47.177Z,99614.38
2022-12-29T02:37:08.626Z,99605.28
2022-12-29T02:38:50.592Z,99606.94
2022-12-29T02:40:10.047Z,99606.94
2022-12-29T02:41:31.148Z,99603.06
2022-12-29T02:42:42.529Z,99611.34
2022-12-29T02:44:05.700Z,99613.81
2022-12-29T02:45:17.538Z,99608.31
2022-12-29T02:46:33.795Z,99606.41
2022-12-29T02:47:43.112Z,99609.97
2022-12-29T02:49:28.874Z,99604.47
2022-12-29T02:50:38.531Z,99608.06
2022-12-29T02:51:58.289Z,99608.88
2022-12-29T02:53:04.337Z,99604.19
2022-12-29T02:54:25.139Z,99613.31
2022-12-29T02:55:27.849Z,99605.84
2022-12-29T02:56:30.103Z,99605.84
2022-12-29T02:57:35.777Z,99600.06
2022-12-29T02:58:38.779Z,99607.50
2022-12-29T02:59:44.276Z,99611.94
2022-12-29T03:01:14.109Z,99605.56
2022-12-29T03:02:55.646Z,99608.91
2022-12-29T03:04:36.277Z,99607.81
2022-12-29T03:06:09.014Z,99605.88
2022-12-29T03:07:23.365Z,99604.50
2022-12-29T03:08:56.151Z,99601.75
2022-12-29T03:10:00.895Z,99598.97
2022-12-29T03:11:06.818Z,99598.97
2022-12-29T03:12:19.750Z,99600.66
2022-12-29T03:13:54.038Z,99594.03
2022-12-29T03:15:23.431Z,99599.28
2022-12-29T03:16:47.263Z,99591.81
2022-12-29T03:18:18.970Z,99596.25
2022-12-29T03:19:47.530Z,99588.25
2022-12-29T03:20:55.988Z,99580.50
2022-12-29T03:22:25.721Z,99583.84
2022-12-29T03:23:39.757Z,99573.63
2022-12-29T03:25:05.006Z,99576.38
2022-12-29T03:26:12.651Z,99568.13
2022-12-29T03:27:21.047Z,99573.09
2022-12-29T03:28:28.714Z,99570.34
2022-12-29T03:29:36.296Z,99571.16
2022-12-29T03:30:41.080Z,99572.81
2022-12-29T03:31:43.844Z,99563.47
2022-12-29T03:33:16.604Z,99565.13
2022-12-29T03:34:22.773Z,99560.13
2022-12-29T03:35:28.903Z,99557.38
2022-12-29T03:36:45.493Z,99557.09
2022-12-29T03:38:00.482Z,99559.63
2022-12-29T03:39:14.472Z,99557.38
2022-12-29T03:40:17.689Z,99560.97
2022-12-29T03:41:27.155Z,99557.38
2022-12-29T03:42:36.383Z,99559.88
2022-12-29T03:43:38.886Z,99554.91
2022-12-29T03:44:44.124Z,99549.13
2022-12-29T03:45:48.532Z,99556.03
2022-12-29T03:46:51.281Z,99553.25
2022-12-29T03:47:54.699Z,99551.31
2022-12-29T03:48:57.735Z,99562.91
2022-12-29T03:49:59.945Z,99546.94
2022-12-29T03:51:02.268Z,99553.00
2022-12-29T03:52:05.069Z,99555.47
2022-12-29T03:53:11.121Z,99557.97
2022-12-29T03:54:14.641Z,99554.94
2022-12-29T03:55:16.944Z,99553.56
2022-12-29T03:56:21.123Z,99546.91
2022-12-29T03:57:25.250Z,99562.38
2022-12-29T03:58:34.515Z,99556.56
2022-12-29T03:59:44.597Z,99555.47
2022-12-29T04:00:47.355Z,99552.19
2022-12-29T04:01:49.689Z,99548.28
2022-12-29T04:02:53.017Z,99552.44
2022-12-29T04:04:15.625Z,99548.56
2022-12-29T04:05:20.393Z,99545.53
2022-12-29T04:06:24.764Z,99545.00
2022-12-29T04:07:33.529Z,99551.34
2022-12-29T04:08:38.226Z,99555.75
2022-12-29T04:09:41.758Z,99549.94
2022-12-29T04:10:46.535Z,99541.38
2022-12-29T04:11:54.008Z,99552.16
2022-12-29T04:12:57.252Z,99545.53
2022-12-29T04:14:00.583Z,99548.84
2022-12-29T04:15:04.098Z,99549.66
2022-12-29T04:16:07.128Z,99545.84
2022-12-29T04:17:10.214Z,99549.41
2022-12-29T04:18:14.554Z,99545.56
2022-12-29T04:19:16.878Z,99538.94
2022-12-29T04:20:39.830Z,99546.13
2022-12-29T04:21:43.234Z,99548.59
2022-12-29T04:22:45.407Z,99544.72
2022-12-29T04:23:48.675Z,99546.13
2022-12-29T04:24:52.900Z,99539.50
2022-12-29T04:25:55.505Z,99554.94
2022-12-29T04:26:57.756Z,99551.91
2022-12-29T04:28:26.281Z,99546.38
2022-12-29T04:29:48.866Z,99541.13
2022-12-29T04:31:11.523Z,99546.34
2022-12-29T04:32:16.660Z,99536.16
2022-12-29T04:33:25.359Z,99531.44
2022-12-29T04:34:29.101Z,99530.34
2022-12-29T04:35:31.347Z,99533.09
2022-12-29T04:36:34.456Z,99532.00
2022-12-29T04:37:36.936Z,99543.56
2022-12-29T04:38:39.288Z,99538.06
2022-12-29T04:39:41.591Z,99540.56
2022-12-29T04:40:45.242Z,99532.00
2022-12-29T04:41:48.154Z,99531.72
2022-12-29T04:42:54.345Z,99526.19
2022-12-29T04:43:57.625Z,99522.31
2022-12-29T04:44:59.783Z,99514.84
2022-12-29T04:46:27.936Z,99529.22
2022-12-29T04:47:40.363Z,99525.38
2022-12-29T04:49:05.659Z,99531.69
2022-12-29T04:50:33.225Z,99540.81
2022-12-29T04:51:58.241Z,99538.31
2022-12-29T04:53:00.466Z,99535.56
2022-12-29T04:54:02.680Z,99540.78
2022-12-29T04:55:06.815Z,99539.69
2022-12-29T04:56:10.250Z,99534.16
2022-12-29T04:57:12.626Z,99535.00
2022-12-29T04:58:22.252Z,99528.34
2022-12-29T04:59:24.999Z,99533.88
2022-12-29T05:00:31.072Z,99525.59
2022-12-29T05:01:33.321Z,99531.13
2022-12-29T05:02:37.676Z,99531.97
2022-12-29T05:03:40.106Z,99533.59
2022-12-29T05:04:42.482Z,99536.34
2022-12-29T05:05:44.660Z,99541.88
2022-12-29T05:06:47.477Z,99527.25
2022-12-29T05:07:49.845Z,99534.44
2022-12-29T05:08:52.425Z,99525.31
2022-12-29T05:09:55.890Z,99535.81
2022-12-29T05:10:58.457Z,99532.50
2022-12-29T05:12:01.105Z,99546.84
2022-12-29T05:13:03.373Z,99522.53
2022-12-29T05:14:08.315Z,99523.38
2022-12-29T05:15:12.136Z,99532.19
2022-12-29T05:16:15.024Z,99508.47
2022-12-29T05:17:19.557Z,99518.13
2022-12-29T05:18:21.771Z,99505.16
2022-12-29T05:19:24.992Z,99510.09
2022-12-29T05:20:30.351Z,99520.91
2022-12-29T05:21:33.268Z,99519.53
2022-12-29T05:22:35.776Z,99510.41
2022-12-29T05:23:38.943Z,99514.00
2022-12-29T05:24:44.746Z,99518.41
2022-12-29T05:25:47.017Z,99525.06
2022-12-29T05:26:56.173Z,99505.16
2022-12-29T05:28:09.533Z,99525.88
2022-12-29T05:29:27.322Z,99533.34
2022-12-29T05:30:29.585Z,99538.00
2022-12-29T05:31:36.751Z,99523.91
2022-12-29T05:32:40.560Z,99528.91
2022-12-29T05:33:43.615Z,99533.59
2022-12-29T05:34:45.904Z,99525.06
2022-12-29T05:35:50.418Z,99534.97
2022-12-29T05:36:53.606Z,99541.88
2022-12-29T05:37:55.799Z,99538.28
2022-12-29T05:38:58.174Z,99548.22
2022-12-29T05:40:00.574Z,99552.09
2022-12-29T05:41:04.188Z,99546.28
2022-12-29T05:42:35.619Z,99549.91
2022-12-29T05:44:16.176Z,99555.13
2022-12-29T05:45:43.695Z,99551.53
2022-12-29T05:47:03.193Z,99544.91
2022-12-29T05:48:23.230Z,99547.66
2022-12-29T05:50:04.283Z,99547.66
2022-12-29T05:51:29.561Z,99547.38
2022-12-29T05:52:34.601Z,99554.03
2022-12-29T05:53:36.801Z,99543.78
2022-12-29T05:54:39.018Z,99545.75
2022-12-29T05:55:49.236Z,99553.75
2022-12-29T05:56:52.455Z,99557.31
2022-12-29T05:57:54.688Z,99563.69
2022-12-29T05:58:56.904Z,99566.44
2022-12-29T05:59:59.940Z,99564.22
2022-12-29T06:01:02.315Z,99567.25
2022-12-29T06:02:04.876Z,99568.06
2022-12-29T06:03:07.673Z,99567.81
2022-12-29T06:04:10.170Z,99569.75
2022-12-29T06:05:12.530Z,99575.25
2022-12-29T06:06:15.658Z,99576.38
2022-12-29T06:07:21.261Z,99576.13
2022-12-29T06:08:26.702Z,99569.44
2022-12-29T06:09:36.610Z,99566.69
2022-12-29T06:10:39.741Z,99570.00
2022-12-29T06:11:42.484Z,99562.53
2022-12-29T06:12:44.805Z,99557.00
2022-12-29T06:13:47.138Z,99565.88
2022-12-29T06:14:49.423Z,99552.56
2022-12-29T06:15:52.083Z,99557.28
2022-12-29T06:16:54.929Z,99556.19
2022-12-29T06:17:58.055Z,99556.19
2022-12-29T06:19:00.258Z,99562.25
2022-12-29T06:20:02.833Z,99553.94
2022-12-29T06:21:06.480Z,99558.38
2022-12-29T06:22:09.443Z,99549.28
2022-12-29T06:23:14.279Z,99550.09
2022-12-29T06:24:16.447Z,99548.97
2022-12-29T06:25:18.756Z,99559.22
2022-12-29T06:26:21.047Z,99550.94
2022-12-29T06:27:24.169Z,99559.22
2022-12-29T06:28:28.383Z,99551.75
2022-12-29T06:29:33.564Z,99547.03
2022-12-29T06:30:35.801Z,99537.13
2022-12-29T06:31:38.183Z,99542.34
2022-12-29T06:32:43.689Z,99540.41
2022-12-29T06:33:50.088Z,99546.78
2022-12-29T06:34:52.818Z,99538.50
2022-12-29T06:35:54.988Z,99544.00
2022-12-29T06:36:57.195Z,99542.34
2022-12-29T06:37:59.349Z,99547.88
2022-12-29T06:39:01.653Z,99532.13
2022-12-29T06:40:04.201Z,99546.78
2022-12-29T06:41:18.015Z,99538.75
2022-12-29T06:42:38.950Z,99540.41
2022-12-29T06:44:08.260Z,99545.94
2022-12-29T06:45:26.843Z,99554.22
2022-12-29T06:46:29.088Z,99555.88
2022-12-29T06:47:31.391Z,99545.94
2022-12-29T06:48:33.760Z,99545.94
2022-12-29T06:49:36.274Z,99544.28
2022-12-29T06:50:38.469Z,99560.59
2022-12-29T06:51:40.646Z,99560.84
2022-12-29T06:52:42.925Z,99555.31
2022-12-29T06:53:46.915Z,99557.28
2022-12-29T06:54:49.088Z,99561.69
2022-12-29T06:55:51.619Z,99556.47
2022-12-29T06:56:53.819Z,99560.31
2022-12-29T06:57:57.611Z,99562.25
2022-12-29T06:59:02.112Z,99555.91
2022-12-29T07:00:06.035Z,99553.94
2022-12-29T07:01:08.300Z,99562.53
2022-12-29T07:02:12.603Z,99559.75
2022-12-29T07:03:15.137Z,99558.94
2022-12-29T07:04:17.468Z,99557.00
2022-12-29T07:05:19.722Z,99555.34
2022-12-29T07:06:22.226Z,99563.63
2022-12-29T07:07:24.483Z,99563.91
2022-12-29T07:08:26.707Z,99562.00
2022-12-29T07:09:38.151Z,99567.81
2022-12-29T07:10:40.463Z,99568.63
2022-12-29T07:11:42.714Z,99567.25
2022-12-29T07:12:45.034Z,99566.16
2022-12-29T07:13:50.980Z,99573.59
2022-12-29T07:14:53.827Z,99586.31
2022-12-29T07:15:56.016Z,99587.41
2022-12-29T07:16:58.215Z,99585.78
2022-12-29T07:18:00.400Z,99581.88
2022-12-29T07:19:02.658Z,99586.59
2022-12-29T07:20:10.962Z,99573.88
2022-12-29T07:21:13.139Z,99576.63
2022-12-29T07:22:15.319Z,99581.34
2022-12-29T07:23:17.551Z,99580.50
2022-12-29T07:24:19.765Z,99579.69
2022-12-29T07:25:22.259Z,99585.22
2022-12-29T07:26:24.520Z,99578.59
2022-12-29T07:27:26.707Z,99581.63
2022-12-29T07:28:29.149Z,99586.31
2022-12-29T07:29:34.461Z,99592.41
2022-12-29T07:30:38.557Z,99591.03
2022-12-29T07:31:40.767Z,99582.75
2022-12-29T07:32:45.268Z,99582.75
2022-12-29T07:33:48.719Z,99579.13
2022-12-29T07:34:51.039Z,99559.25
2022-12-29T07:35:53.308Z,99564.78
2022-12-29T07:36:58.624Z,99555.94
2022-12-29T07:38:00.805Z,99555.13
2022-12-29T07:39:04.410Z,99552.38
2022-12-29T07:40:07.308Z,99553.47
2022-12-29T07:41:10.120Z,99555.13
2022-12-29T07:42:12.413Z,99559.00
2022-12-29T07:43:18.497Z,99556.22
2022-12-29T07:44:35.184Z,99562.84
2022-12-29T07:45:55.239Z,99559.81
2022-12-29T07:46:59.345Z,99564.50
2022-12-29T07:48:03.636Z,99568.09
2022-12-29T07:49:05.856Z,99572.53
2022-12-29T07:50:08.210Z,99571.69
2022-12-29T07:51:10.946Z,99572.53
2022-12-29T07:52:13.190Z,99575.84
2022-12-29T07:53:15.865Z,99571.13
2022-12-29T07:54:24.400Z,99575.56
2022-12-29T07:55:26.740Z,99576.38
2022-12-29T07:56:29.052Z,99576.13
2022-12-29T07:57:32.245Z,99570.59
2022-12-29T07:58:34.817Z,99570.31
2022-12-29T07:59:36.967Z,99571.13
2022-12-29T08:00:39.834Z,99579.13
2022-12-29T08:01:42.185Z,99578.00
2022-12-29T08:04:00.582Z,99580.50
2022-12-29T08:05:03.366Z,99581.34
2022-12-29T08:06:05.807Z,99581.34
2022-12-29T08:07:08.073Z,99579.38
2022-12-29T08:08:10.239Z,99577.19
2022-12-29T08:09:19.588Z,99589.34
2022-12-29T08:10:24.990Z,99587.09
2022-12-29T08:11:27.552Z,99591.53
2022-12-29T08:12:29.755Z,99599.81
2022-12-29T08:13:31.928Z,99599.81
2022-12-29T08:14:34.088Z,99600.66
2022-12-29T08:15:38.037Z,99606.72
2022-12-29T08:16:40.286Z,99603.94
2022-12-29T08:17:42.548Z,99600.09
2022-12-29T08:18:45.446Z,99606.44
2022-12-29T08:19:47.943Z,99600.91
2022-12-29T08:20:55.615Z,99605.31
2022-12-29T08:22:00.481Z,99610.56
2022-12-29T08:23:02.727Z,99610.56
2022-12-29T08:24:06.926Z,99613.88
2022-12-29T08:25:09.442Z,99602.84
2022-12-29T08:26:12.261Z,99603.66
2022-12-29T08:27:20.719Z,99612.50
2022-12-29T08:28:23.554Z,99602.25
2022-12-29T08:29:26.175Z,99603.91
2022-12-29T08:30:28.422Z,99597.28
2022-12-29T08:31:30.788Z,99594.53
2022-12-29T08:32:33.094Z,99592.31
2022-12-29T08:33:35.289Z,99594.81
2022-12-29T08:34:37.457Z,99584.56
2022-12-29T08:35:39.636Z,99587.88
2022-12-29T08:36:41.838Z,99582.34
2022-12-29T08:37:44.067Z,99588.69
2022-12-29T08:38:46.384Z,99580.13
2022-12-29T08:39:48.842Z,99586.50
2022-12-29T08:40:52.697Z,99588.97
2022-12-29T08:41:54.918Z,99591.72
2022-12-29T08:42:57.083Z,99585.91
2022-12-29T08:43:59.314Z,99586.19
2022-12-29T08:45:02.061Z,99592.53
2022-12-29T08:46:04.473Z,99595.31
2022-12-29T08:47:07.099Z,99601.69
2022-12-29T08:48:09.389Z,99602.50
2022-12-29T08:49:11.566Z,99601.38
2022-12-29T08:50:16.840Z,99594.75
2022-12-29T08:51:22.988Z,99601.09
2022-12-29T08:52:26.834Z,99592.00
2022-12-29T08:53:29.877Z,99594.75
2022-12-29T08:54:32.958Z,99582.56
2022-12-29T08:55:35.350Z,99588.09
2022-12-29T08:56:37.492Z,99580.66
2022-12-29T08:57:40.426Z,99590.84
2022-12-29T08:58:51.876Z,99586.19
2022-12-29T08:59:54.560Z,99580.66
2022-12-29T09:00:58.018Z,99592.81
2022-12-29T09:02:00.328Z,99590.84
2022-12-29T09:03:02.848Z,99583.72
2022-12-29T09:04:20.675Z,99590.34
2022-12-29T09:05:23.018Z,99585.63
2022-12-29T09:06:25.728Z,99585.63
2022-12-29T09:07:28.301Z,99585.63
2022-12-29T09:08:30.931Z,99582.84
2022-12-29T09:09:36.067Z,99587.56
2022-12-29T09:10:38.224Z,99591.44
2022-12-29T09:11:40.459Z,99595.00
2022-12-29T09:12:42.729Z,99588.69
2022-12-29T09:13:45.643Z,99587.56
2022-12-29T09:14:48.076Z,99583.97
2022-12-29T09:15:59.532Z,99593.63
2022-12-29T09:17:20.454Z,99592.00
2022-12-29T09:18:22.631Z,99582.56
2022-12-29T09:19:24.846Z,99592.81
2022-12-29T09:20:27.094Z,99594.75
2022-12-29T09:21:32.978Z,99588.94
2022-12-29T09:22:35.341Z,99603.59
2022-12-29T09:23:38.116Z,99594.47
2022-12-29T09:24:40.311Z,99598.06
2022-12-29T09:25:47.108Z,99593.38
2022-12-29T09:26:49.336Z,99589.22
2022-12-29T09:27:54.259Z,99588.94
2022-12-29T09:28:56.432Z,99596.13
2022-12-29T09:29:58.677Z,99601.38
2022-12-29T09:31:01.575Z,99600.28
2022-12-29T09:32:07.548Z,99598.59
2022-12-29T09:33:10.082Z,99595.56
2022-12-29T09:34:12.547Z,99590.03
2022-12-29T09:35:16.326Z,99596.09
2022-12-29T09:36:21.173Z,99599.69
2022-12-29T09:37:23.391Z,99594.72
2022-12-29T09:38:28.020Z,99594.44
2022-12-29T09:39:30.173Z,99602.44
2022-12-29T09:40:34.289Z,99587.78
2022-12-29T09:41:58.483Z,99587.22
2022-12-29T09:43:18.649Z,99597.16
2022-12-29T09:44:23.689Z,99604.88
2022-12-29T09:45:45.982Z,99600.72
2022-12-29T09:46:54.662Z,99599.03
2022-12-29T09:48:01.355Z,99600.16
2022-12-29T09:49:29.957Z,99602.38
2022-12-29T09:50:36.647Z,99599.03
2022-12-29T09:51:41.296Z,99602.03
2022-12-29T09:52:56.089Z,99600.34
2022-12-29T09:54:01.416Z,99592.84
2022-12-29T09:55:13.588Z,99604.16
2022-12-29T09:56:23.174Z,99603.03
2022-12-29T09:57:50.883Z,99595.50
2022-12-29T09:58:55.667Z,99596.03
2022-12-29T10:00:04.203Z,99590.75
2022-12-29T10:01:36.705Z,99591.50
2022-12-29T10:02:44.165Z,99589.50
2022-12-29T10:03:54.173Z,99592.22
2022-12-29T10:04:56.526Z,99589.97
2022-12-29T10:06:09.805Z,99592.41
2022-12-29T10:07:36.776Z,99580.69
2022-12-29T10:08:45.752Z,99587.25
2022-12-29T10:10:28.771Z,99584.97
2022-12-29T10:11:48.008Z,99581.53
2022-12-29T10:13:06.404Z,99584.25
2022-12-29T10:14:51.801Z,99577.22
2022-12-29T10:16:09.347Z,99575.47
2022-12-29T10:17:48.939Z,99582.31
2022-12-29T10:19:15.599Z,99570.28
2022-12-29T10:20:37.366Z,99575.16
2022-12-29T10:22:03.868Z,99580.34
2022-12-29T10:23:40.239Z,99579.41
2022-12-29T10:24:46.879Z,99562.38
2022-12-29T10:25:49.705Z,99564.53
2022-12-29T10:26:53.120Z,99572.50
2022-12-29T10:27:59.787Z,99571.31
2022-12-29T10:29:07.864Z,99559.00
2022-12-29T10:30:13.644Z,99564.50
2022-12-29T10:31:25.538Z,99566.88
2022-12-29T10:32:34.993Z,99565.72
2022-12-29T10:33:43.856Z,99568.38
2022-12-29T10:34:51.186Z,99571.94
2022-12-29T10:35:53.445Z,99568.75
2022-12-29T10:37:02.139Z,99569.81
2022-12-29T10:38:39.993Z,99574.16
2022-12-29T10:39:50.446Z,99573.22
2022-12-29T10:41:04.483Z,99558.75
2022-12-29T10:42:46.157Z,99568.44
2022-12-29T10:43:52.551Z,99557.81
2022-12-29T10:44:57.141Z,99552.00
2022-12-29T10:46:05.984Z,99549.22
2022-12-29T10:47:38.873Z,99556.69
2022-12-29T10:48:41.324Z,99563.91
2022-12-29T10:49:47.558Z,99561.44
2022-12-29T10:50:54.734Z,99557.81
2022-12-29T10:52:03.666Z,99556.47
2022-12-29T10:53:07.223Z,99563.69
2022-12-29T10:54:34.693Z,99548.16
2022-12-29T10:55:39.125Z,99550.94
2022-12-29T10:56:46.664Z,99546.53
2022-12-29T10:57:50.618Z,99539.31
2022-12-29T10:58:56.665Z,99543.22
2022-12-29T10:59:59.330Z,99536.84
2022-12-29T11:01:01.680Z,99532.91
2022-12-29T11:02:12.999Z,99536.84
2022-12-29T11:03:36.951Z,99548.75
2022-12-29T11:05:00.656Z,99548.75
2022-12-29T11:06:11.133Z,99536.84
2022-12-29T11:07:16.322Z,99536.84
2022-12-29T11:08:25.683Z,99532.91
2022-12-29T11:09:42.340Z,99532.09
2022-12-29T11:10:47.259Z,99534.88
2022-12-29T11:11:49.436Z,99536.00
2022-12-29T11:12:58.290Z,99537.97
2022-12-29T11:14:15.794Z,99535.19
2022-12-29T11:15:18.091Z,99533.53
2022-12-29T11:16:35.426Z,99534.34
2022-12-29T11:17:49.647Z,99524.41
2022-12-29T11:18:52.519Z,99531.06
2022-12-29T11:19:54.695Z,99521.91
2022-12-29T11:21:03.960Z,99529.41
2022-12-29T11:22:29.707Z,99528.88
2022-12-29T11:23:36.708Z,99529.19
2022-12-29T11:24:45.817Z,99527.03
2022-12-29T11:26:11.852Z,99528.47
2022-12-29T11:27:23.992Z,99535.97
2022-12-29T11:28:30.602Z,99524.34
2022-12-29T11:29:42.345Z,99527.44
2022-12-29T11:30:44.711Z,99534.09
2022-12-29T11:31:50.920Z,99526.09
2022-12-29T11:32:55.241Z,99529.97
2022-12-29T11:33:57.486Z,99515.88
2022-12-29T11:35:00.287Z,99515.88
2022-12-29T11:36:07.496Z,99516.72
2022-12-29T11:37:16.537Z,99512.88
2022-12-29T11:38:26.541Z,99514.84
2022-12-29T11:39:38.948Z,99515.16
2022-12-29T11:40:41.607Z,99507.13
2022-12-29T11:41:53.649Z,99500.72
2022-12-29T11:43:05.695Z,99514.09
2022-12-29T11:44:13.668Z,99517.69
2022-12-29T11:45:23.976Z,99505.25
2022-12-29T11:46:38.736Z,99496.91
2022-12-29T11:47:46.260Z,99509.97
2022-12-29T11:48:49.380Z,99501.41
2022-12-29T11:49:54.986Z,99518.06
2022-12-29T11:51:03.213Z,99509.72
2022-12-29T11:52:05.785Z,99507.25
2022-12-29T11:53:27.116Z,99507.56
2022-12-29T11:54:34.930Z,99513.94
2022-12-29T11:55:37.971Z,99518.13
2022-12-29T11:56:44.857Z,99517.31
2022-12-29T11:57:48.190Z,99520.91
2022-12-29T11:58:51.816Z,99516.47
2022-12-29T11:59:58.795Z,99526.75
2022-12-29T12:01:26.883Z,99521.22
2022-12-29T12:02:43.133Z,99523.44
2022-12-29T12:03:57.401Z,99521.78
2022-12-29T12:05:28.299Z,99526.53
2022-12-29T12:06:33.722Z,99529.06
2022-12-29T12:07:45.110Z,99520.75
2022-12-29T12:08:57.240Z,99523.03
2022-12-29T12:10:07.873Z,99520.56
2022-12-29T12:11:18.551Z,99516.94
2022-12-29T12:12:36.988Z,99519.22
2022-12-29T12:13:53.478Z,99520.31
2022-12-29T12:15:00.833Z,99511.16
2022-12-29T12:16:23.826Z,99506.75
2022-12-29T12:17:39.483Z,99502.63
2022-12-29T12:18:51.050Z,99507.34
2022-12-29T12:20:17.596Z,99504.88
2022-12-29T12:21:26.323Z,99508.75
2022-12-29T12:22:42.715Z,99512.66
2022-12-29T12:23:55.276Z,99513.50
2022-12-29T12:25:09.033Z,99512.66
2022-12-29T12:26:14.083Z,99515.44
2022-12-29T12:27:25.645Z,99507.09
2022-12-29T12:28:57.168Z,99511.84
2022-12-29T12:30:08.595Z,99498.78
2022-12-29T12:31:24.525Z,99500.22
2022-12-29T12:33:10.739Z,99498.28
2022-12-29T12:34:23.871Z,99495.19
2022-12-29T12:35:38.960Z,99501.06
2022-12-29T12:36:48.939Z,99499.94
2022-12-29T12:37:59.077Z,99496.31
2022-12-29T12:39:13.523Z,99493.25
2022-12-29T12:40:53.028Z,99494.38
2022-12-29T12:42:44.209Z,99489.97
2022-12-29T12:44:02.784Z,99491.31
2022-12-29T12:45:39.025Z,99485.22
2022-12-29T12:46:58.353Z,99477.75
2022-12-29T12:48:33.710Z,99490.78
2022-12-29T12:49:54.516Z,99483.56
2022-12-29T12:51:33.864Z,99478.03
2022-12-29T12:53:04.810Z,99477.22
2022-12-29T12:54:23.974Z,99473.91
2022-12-29T12:55:46.687Z,99489.44
2022-12-29T12:57:15.719Z,99475.06
2022-12-29T12:58:30.739Z,99469.50
2022-12-29T12:59:52.069Z,99465.88
2022-12-29T13:01:13.100Z,99475.88
2022-12-29T13:02:49.542Z,99471.44
2022-12-29T13:04:30.615Z,99466.72
2022-12-29T13:05:43.934Z,99471.13
2022-12-29T13:06:55.587Z,99459.53
2022-12-29T13:08:16.144Z,99468.97
2022-12-29T13:09:20.991Z,99477.28
2022-12-29T13:10:44.120Z,99474.50
2022-12-29T13:12:12.621Z,99478.41
2022-12-29T13:13:36.888Z,99483.94
2022-12-29T13:15:06.368Z,99485.09
2022-12-29T13:16:14.543Z,99487.88
2022-12-29T13:17:41.940Z,99479.56
2022-12-29T13:19:12.018Z,99472.03
2022-12-29T13:20:44.692Z,99476.47
2022-12-29T13:22:00.016Z,99483.94
2022-12-29T13:23:21.415Z,99493.94
2022-12-29T13:24:42.636Z,99479.56
2022-12-29T13:25:52.388Z,99481.19
2022-12-29T13:27:12.940Z,99480.06
2022-12-29T13:28:29.829Z,99478.13
2022-12-29T13:29:42.058Z,99476.47
2022-12-29T13:31:09.304Z,99489.50
2022-12-29T13:32:44.450Z,99483.94
2022-12-29T13:34:00.581Z,99497.00
2022-12-29T13:35:17.640Z,99491.75
2022-12-29T13:36:57.933Z,99494.53
2022-12-29T13:38:12.179Z,99493.69
2022-12-29T13:39:43.101Z,99485.97
2022-12-29T13:40:51.710Z,99476.84